createdAt,value
2019-03-26T00:00:06.702Z,9.07
2019-03-26T00:03:14.751Z,8.00
2019-03-26T00:06:24.222Z,6.30
2019-03-26T00:09:33.990Z,12.73
2019-03-26T00:12:43.384Z,7.03
2019-03-26T00:15:52.887Z,9.70
2019-03-26T00:19:02.433Z,10.00
2019-03-26T00:22:22.023Z,10.07
2019-03-26T00:25:31.526Z,10.20
2019-03-26T00:28:41.272Z,8.40
2019-03-26T00:31:50.773Z,9.27
2019-03-26T00:35:00.408Z,11.33
2019-03-26T00:38:09.948Z,10.27
2019-03-26T00:41:19.387Z,9.03
2019-03-26T00:44:28.981Z,13.43
2019-03-26T00:47:39.574Z,11.37
2019-03-26T00:50:49.919Z,10.47
2019-03-26T00:53:59.265Z,9.17
2019-03-26T00:57:19.122Z,11.40
2019-03-26T01:00:42.474Z,8.90
2019-03-26T01:03:54.859Z,8.43
2019-03-26T01:07:02.942Z,10.60
2019-03-26T01:10:23.326Z,9.93
2019-03-26T01:13:32.879Z,9.40
2019-03-26T01:16:42.473Z,9.53
2019-03-26T01:19:51.917Z,11.10
2019-03-26T01:23:01.397Z,13.93
2019-03-26T01:26:10.840Z,8.27
2019-03-26T01:29:20.256Z,12.60
2019-03-26T01:32:40.131Z,12.10
2019-03-26T01:35:49.520Z,10.03
2019-03-26T01:38:58.830Z,13.90
2019-03-26T01:42:18.569Z,14.97
2019-03-26T01:45:28.125Z,11.70
2019-03-26T01:48:37.570Z,11.27
2019-03-26T01:51:47.068Z,15.40
2019-03-26T01:54:56.469Z,11.60
2019-03-26T01:58:16.497Z,15.10
2019-03-26T02:01:26.163Z,15.87
2019-03-26T02:04:35.607Z,15.30
2019-03-26T02:07:45.153Z,9.53
2019-03-26T02:10:54.585Z,13.07
2019-03-26T02:14:14.165Z,14.13
2019-03-26T02:17:23.639Z,18.23
2019-03-26T02:20:33.799Z,18.87
2019-03-26T02:23:43.181Z,12.83
2019-03-26T02:27:03.326Z,13.47
2019-03-26T02:30:12.874Z,16.27
2019-03-26T02:33:22.323Z,12.60
2019-03-26T02:36:30.251Z,12.27
2019-03-26T02:39:39.894Z,12.83
2019-03-26T02:42:49.359Z,16.73
2019-03-26T02:45:58.803Z,21.63
2019-03-26T02:49:18.555Z,12.83
2019-03-26T02:52:28.014Z,12.17
2019-03-26T02:55:37.530Z,15.53
2019-03-26T02:58:47.022Z,12.90
2019-03-26T03:01:56.357Z,18.37
2019-03-26T03:05:05.792Z,15.53
2019-03-26T03:08:15.136Z,14.40
2019-03-26T03:11:24.555Z,15.90
2019-03-26T03:14:44.194Z,11.60
2019-03-26T03:17:53.651Z,14.57
2019-03-26T03:21:04.018Z,14.37
2019-03-26T03:24:13.504Z,15.37
2019-03-26T03:27:33.233Z,14.20
2019-03-26T03:30:42.724Z,13.13
2019-03-26T03:33:52.236Z,11.97
2019-03-26T03:37:01.732Z,14.83
2019-03-26T03:40:11.618Z,16.27
2019-03-26T03:43:20.970Z,15.73
2019-03-26T03:46:30.709Z,9.70
2019-03-26T03:49:40.526Z,13.33
2019-03-26T03:52:50.660Z,14.33
2019-03-26T03:56:02.588Z,16.77
2019-03-26T03:59:13.587Z,9.80
2019-03-26T04:02:33.289Z,16.93
2019-03-26T04:05:42.637Z,11.00
2019-03-26T04:08:52.075Z,19.10
2019-03-26T04:12:11.935Z,13.53
2019-03-26T04:15:21.540Z,13.73
2019-03-26T04:18:30.972Z,12.60
2019-03-26T04:21:40.447Z,13.37
2019-03-26T04:24:50.077Z,17.33
2019-03-26T04:28:09.619Z,11.17
2019-03-26T04:31:19.063Z,14.77
2019-03-26T04:34:28.547Z,13.63
2019-03-26T04:37:48.185Z,13.03
2019-03-26T04:40:57.794Z,12.33
2019-03-26T04:44:07.080Z,13.77
2019-03-26T04:47:28.215Z,12.00
2019-03-26T04:50:37.609Z,10.33
2019-03-26T04:53:47.201Z,9.90
2019-03-26T04:57:06.959Z,15.17
2019-03-26T05:00:17.981Z,19.03
2019-03-26T05:03:27.337Z,10.97
2019-03-26T05:06:47.275Z,8.93
2019-03-26T05:09:56.681Z,10.70
2019-03-26T05:13:06.092Z,15.07
2019-03-26T05:16:15.700Z,11.40
2019-03-26T05:19:25.191Z,12.97
2019-03-26T05:22:44.808Z,9.00
2019-03-26T05:25:54.193Z,12.23
2019-03-26T05:29:03.600Z,14.37
2019-03-26T05:32:23.571Z,10.90
2019-03-26T05:35:33.985Z,9.87
2019-03-26T05:38:43.483Z,11.00
2019-03-26T05:41:57.409Z,10.90
2019-03-26T05:45:17.224Z,11.20
2019-03-26T05:48:26.674Z,10.10
2019-03-26T05:51:36.097Z,10.00
2019-03-26T05:54:55.697Z,10.23
2019-03-26T05:58:04.992Z,14.50
2019-03-26T06:01:14.412Z,9.93
2019-03-26T06:04:23.798Z,11.43
2019-03-26T06:07:33.178Z,8.60
2019-03-26T06:10:42.902Z,7.20
2019-03-26T06:13:52.223Z,13.83
2019-03-26T06:17:01.557Z,12.30
2019-03-26T06:20:22.985Z,11.67
2019-03-26T06:23:34.648Z,11.83
2019-03-26T06:26:54.492Z,9.87
2019-03-26T06:30:03.793Z,7.50
2019-03-26T06:33:13.111Z,8.37
2019-03-26T06:36:24.214Z,10.47
2019-03-26T06:39:33.531Z,7.20
2019-03-26T06:42:42.993Z,6.83
2019-03-26T06:46:02.822Z,9.70
2019-03-26T06:49:14.105Z,8.00
2019-03-26T06:52:24.443Z,9.30
2019-03-26T06:55:34.156Z,9.30
2019-03-26T06:58:44.777Z,8.03
2019-03-26T07:01:54.165Z,8.90
2019-03-26T07:05:03.587Z,11.97
2019-03-26T07:08:12.864Z,13.47
2019-03-26T07:11:22.380Z,11.20
2019-03-26T07:14:42.191Z,10.20
2019-03-26T07:17:52.551Z,12.53
2019-03-26T07:21:02.116Z,10.93
2019-03-26T07:24:11.822Z,12.43
2019-03-26T07:27:21.115Z,8.63
2019-03-26T07:30:49.393Z,9.17
2019-03-26T07:33:58.820Z,12.73
2019-03-26T07:37:08.352Z,10.90
2019-03-26T07:40:17.745Z,8.93
2019-03-26T07:43:37.461Z,8.80
2019-03-26T07:46:46.934Z,8.50
2019-03-26T07:49:56.329Z,11.80
2019-03-26T07:53:16.145Z,7.47
2019-03-26T07:56:25.562Z,10.33
2019-03-26T07:59:34.845Z,7.80
2019-03-26T08:02:54.533Z,11.27
2019-03-26T08:06:04.154Z,9.60
2019-03-26T08:09:13.607Z,13.13
2019-03-26T08:12:33.202Z,7.90
2019-03-26T08:15:43.792Z,7.00
2019-03-26T08:18:53.520Z,11.10
2019-03-26T08:22:13.371Z,8.27
2019-03-26T08:25:22.852Z,8.70
2019-03-26T08:28:32.159Z,12.90
2019-03-26T08:31:52.056Z,7.20
2019-03-26T08:35:01.470Z,13.23
2019-03-26T08:38:13.049Z,13.13
2019-03-26T08:41:22.145Z,8.63
2019-03-26T08:44:31.585Z,8.57
2019-03-26T08:47:51.275Z,8.07
2019-03-26T08:51:00.833Z,7.03
2019-03-26T08:54:09.970Z,8.70
2019-03-26T08:57:29.706Z,9.93
2019-03-26T09:00:39.138Z,7.63
2019-03-26T09:03:48.638Z,7.37
2019-03-26T09:07:10.935Z,9.27
2019-03-26T09:10:20.387Z,3.57
2019-03-26T09:13:29.678Z,6.30
2019-03-26T09:16:39.137Z,6.33
2019-03-26T09:19:59.222Z,5.40
2019-03-26T09:23:08.685Z,3.47
2019-03-26T09:26:18.111Z,7.93
2019-03-26T09:29:27.612Z,5.80
2019-03-26T09:32:37.346Z,7.67
2019-03-26T09:35:46.792Z,5.50
2019-03-26T09:38:56.294Z,7.30
2019-03-26T09:42:05.748Z,7.50
2019-03-26T09:45:15.811Z,5.43
2019-03-26T09:48:25.166Z,6.20
2019-03-26T09:51:36.850Z,5.13
2019-03-26T09:54:47.276Z,5.73
2019-03-26T09:57:56.962Z,7.00
2019-03-26T10:01:16.717Z,5.43
2019-03-26T10:04:26.163Z,6.40
2019-03-26T10:07:36.753Z,7.37
2019-03-26T10:10:46.095Z,6.00
2019-03-26T10:13:54.035Z,5.30
2019-03-26T10:17:03.640Z,5.40
2019-03-26T10:20:23.240Z,3.77
2019-03-26T10:23:34.134Z,7.43
2019-03-26T10:26:43.703Z,6.83
2019-03-26T10:30:05.762Z,6.17
2019-03-26T10:33:14.620Z,6.57
2019-03-26T10:36:24.069Z,3.50
2019-03-26T10:39:33.509Z,6.63
2019-03-26T10:42:43.141Z,4.70
2019-03-26T10:46:02.721Z,7.13
2019-03-26T10:49:12.189Z,4.23
2019-03-26T10:52:23.181Z,8.13
2019-03-26T10:55:42.915Z,5.97
2019-03-26T10:58:53.477Z,5.17
2019-03-26T11:02:02.923Z,5.17
2019-03-26T11:05:11.436Z,5.47
2019-03-26T11:08:20.827Z,5.37
2019-03-26T11:11:28.827Z,7.43
2019-03-26T11:14:38.241Z,2.90
2019-03-26T11:17:47.767Z,5.33
2019-03-26T11:21:02.854Z,4.77
2019-03-26T11:24:08.371Z,6.40
2019-03-26T11:27:17.811Z,3.83
2019-03-26T11:30:27.227Z,3.70
2019-03-26T11:33:47.083Z,2.00
2019-03-26T11:36:56.550Z,2.43
2019-03-26T11:40:06.197Z,7.73
2019-03-26T11:43:25.701Z,4.20
2019-03-26T11:46:35.150Z,2.87
2019-03-26T11:49:44.567Z,4.17
2019-03-26T11:53:04.329Z,5.83
2019-03-26T11:56:13.935Z,4.80
2019-03-26T11:59:23.372Z,4.00
2019-03-26T12:02:34.300Z,6.23
2019-03-26T12:05:43.714Z,4.70
2019-03-26T12:08:53.558Z,4.27
2019-03-26T12:12:02.945Z,5.67
2019-03-26T12:15:24.975Z,8.67
2019-03-26T12:18:44.784Z,6.80
2019-03-26T12:21:54.227Z,3.60
2019-03-26T12:25:03.692Z,3.43
2019-03-26T12:28:23.441Z,4.83
2019-03-26T12:31:32.827Z,2.77
2019-03-26T12:34:42.335Z,2.83
2019-03-26T12:38:15.010Z,3.10
2019-03-26T12:41:24.590Z,2.83
2019-03-26T12:44:44.532Z,4.30
2019-03-26T12:47:53.948Z,2.83
2019-03-26T12:51:03.412Z,3.80
2019-03-26T12:54:23.049Z,1.93
2019-03-26T12:57:32.575Z,1.43
2019-03-26T13:00:41.904Z,2.70
2019-03-26T13:04:11.975Z,1.87
2019-03-26T13:07:12.709Z,2.77
2019-03-26T13:10:22.012Z,2.97
2019-03-26T13:13:41.788Z,3.13
2019-03-26T13:16:51.194Z,2.03
2019-03-26T13:20:00.714Z,2.27
2019-03-26T13:23:10.276Z,2.83
2019-03-26T13:26:21.089Z,2.53
2019-03-26T13:29:30.630Z,3.03
2019-03-26T13:32:39.940Z,1.87
2019-03-26T13:35:49.685Z,2.10
2019-03-26T13:39:11.074Z,2.57
2019-03-26T13:42:20.464Z,4.87
2019-03-26T13:45:32.673Z,6.23
2019-03-26T13:48:41.109Z,5.00
2019-03-26T13:51:52.056Z,4.70
2019-03-26T13:55:12.197Z,4.93
2019-03-26T13:58:21.500Z,4.07
2019-03-26T14:01:31.034Z,3.87
2019-03-26T14:04:41.776Z,6.00
2019-03-26T14:07:51.212Z,3.73
2019-03-26T14:11:00.669Z,4.23
2019-03-26T14:14:10.110Z,8.90
2019-03-26T14:17:19.662Z,2.27
2019-03-26T14:20:39.207Z,3.77
2019-03-26T14:23:48.598Z,2.43
2019-03-26T14:26:57.916Z,6.73
2019-03-26T14:30:07.014Z,3.63
2019-03-26T14:33:26.638Z,6.63
2019-03-26T14:36:37.232Z,4.23
2019-03-26T14:39:46.770Z,4.13
2019-03-26T14:42:56.304Z,4.57
2019-03-26T14:46:05.736Z,6.67
2019-03-26T14:49:15.026Z,3.83
2019-03-26T14:52:34.675Z,6.27
2019-03-26T14:55:44.147Z,3.80
2019-03-26T14:58:53.611Z,4.50
2019-03-26T15:02:14.481Z,5.23
2019-03-26T15:05:34.290Z,4.57
2019-03-26T15:08:43.753Z,6.30
2019-03-26T15:11:53.249Z,4.97
2019-03-26T15:15:13.442Z,5.57
2019-03-26T15:18:23.314Z,4.37
2019-03-26T15:21:32.815Z,6.07
2019-03-26T15:24:42.131Z,5.10
2019-03-26T15:28:01.777Z,5.40
2019-03-26T15:31:11.219Z,5.83
2019-03-26T15:34:20.671Z,6.50
2019-03-26T15:37:40.911Z,4.67
2019-03-26T15:40:50.863Z,3.27
2019-03-26T15:44:00.518Z,2.20
2019-03-26T15:47:10.444Z,3.03
2019-03-26T15:50:39.047Z,1.70
2019-03-26T15:53:58.900Z,2.23
2019-03-26T15:57:08.360Z,1.13
2019-03-26T16:00:22.632Z,2.53
2019-03-26T16:03:42.337Z,1.37
2019-03-26T16:06:51.616Z,1.47
2019-03-26T16:10:01.033Z,0.90
2019-03-26T16:13:21.058Z,2.23
2019-03-26T16:16:32.016Z,1.50
2019-03-26T16:19:41.487Z,2.87
2019-03-26T16:23:01.076Z,0.97
2019-03-26T16:26:10.494Z,2.93
2019-03-26T16:29:19.828Z,2.30
2019-03-26T16:32:39.640Z,2.33
2019-03-26T16:35:49.062Z,1.20
2019-03-26T16:38:58.490Z,2.27
2019-03-26T16:42:18.175Z,0.60
2019-03-26T16:45:27.603Z,2.57
2019-03-26T16:48:36.941Z,1.20
2019-03-26T16:51:46.404Z,1.20
2019-03-26T16:54:55.870Z,1.30
2019-03-26T16:58:05.309Z,1.43
2019-03-26T17:01:14.769Z,1.27
2019-03-26T17:04:24.204Z,2.10
2019-03-26T17:07:44.043Z,3.93
2019-03-26T17:10:53.519Z,2.63
2019-03-26T17:14:02.953Z,2.20
2019-03-26T17:17:22.755Z,1.63
2019-03-26T17:20:32.218Z,2.40
2019-03-26T17:23:41.942Z,2.93
2019-03-26T17:26:51.332Z,1.57
2019-03-26T17:30:00.783Z,4.07
2019-03-26T17:33:20.397Z,1.83
2019-03-26T17:36:29.873Z,1.40
2019-03-26T17:39:39.374Z,3.43
2019-03-26T17:42:58.941Z,1.87
2019-03-26T17:46:08.400Z,1.73
2019-03-26T17:49:18.620Z,1.27
2019-03-26T17:52:28.302Z,1.60
2019-03-26T17:55:49.137Z,1.50
2019-03-26T17:58:57.889Z,3.60
2019-03-26T18:02:07.893Z,3.57
2019-03-26T18:05:28.945Z,2.17
2019-03-26T18:08:39.596Z,2.60
2019-03-26T18:11:51.394Z,3.00
2019-03-26T18:15:00.628Z,2.20
2019-03-26T18:18:10.120Z,3.10
2019-03-26T18:21:29.743Z,3.03
2019-03-26T18:24:39.153Z,2.43
2019-03-26T18:27:48.591Z,3.73
2019-03-26T18:31:08.363Z,2.20
2019-03-26T18:34:17.813Z,4.13
2019-03-26T18:37:27.094Z,2.40
2019-03-26T18:40:46.850Z,4.13
2019-03-26T18:43:56.258Z,4.73
2019-03-26T18:47:06.867Z,5.60
2019-03-26T18:50:16.571Z,4.37
2019-03-26T18:53:28.089Z,5.97
2019-03-26T18:56:37.973Z,5.30
2019-03-26T18:59:47.610Z,4.33
2019-03-26T19:02:57.114Z,4.77
2019-03-26T19:06:06.525Z,3.83
2019-03-26T19:09:26.588Z,5.40
2019-03-26T19:12:36.216Z,5.53
2019-03-26T19:15:56.259Z,5.47
2019-03-26T19:19:05.847Z,7.07
2019-03-26T19:22:15.255Z,8.20
2019-03-26T19:25:24.675Z,7.40
2019-03-26T19:28:34.162Z,7.67
2019-03-26T19:31:53.888Z,11.07
2019-03-26T19:35:03.381Z,10.37
2019-03-26T19:38:12.777Z,12.73
2019-03-26T19:41:32.439Z,10.80
2019-03-26T19:44:42.166Z,11.03
2019-03-26T19:47:51.807Z,15.97
2019-03-26T19:51:01.249Z,16.33
2019-03-26T19:54:10.792Z,17.20
2019-03-26T19:57:20.188Z,14.27
2019-03-26T20:00:30.145Z,17.50
2019-03-26T20:03:39.547Z,15.27
2019-03-26T20:06:48.846Z,13.53
2019-03-26T20:10:10.498Z,13.97
2019-03-26T20:13:24.683Z,12.10
2019-03-26T20:16:41.377Z,14.37
2019-03-26T20:19:40.875Z,12.07
2019-03-26T20:22:50.322Z,15.33
2019-03-26T20:25:59.853Z,11.87
2019-03-26T20:29:09.256Z,13.43
2019-03-26T20:32:18.762Z,11.13
2019-03-26T20:35:28.176Z,12.83
2019-03-26T20:38:48.079Z,18.33
2019-03-26T20:41:57.484Z,8.43
2019-03-26T20:45:08.873Z,14.87
2019-03-26T20:48:18.178Z,11.57
2019-03-26T20:51:27.590Z,14.50
2019-03-26T20:54:47.481Z,12.27
2019-03-26T20:57:56.885Z,13.23
2019-03-26T21:01:06.260Z,13.87
2019-03-26T21:04:25.934Z,15.23
2019-03-26T21:07:35.331Z,13.07
2019-03-26T21:10:44.812Z,16.73
2019-03-26T21:14:04.464Z,17.80
2019-03-26T21:17:14.071Z,12.40
2019-03-26T21:20:23.433Z,11.97
2019-03-26T21:23:43.492Z,10.87
2019-03-26T21:26:52.767Z,12.40
2019-03-26T21:30:10.833Z,15.50
2019-03-26T21:33:13.266Z,13.20
2019-03-26T21:36:22.785Z,11.43
2019-03-26T21:39:42.394Z,15.97
2019-03-26T21:42:51.697Z,12.77
2019-03-26T21:46:01.007Z,13.37
2019-03-26T21:49:10.508Z,19.83
2019-03-26T21:52:19.858Z,17.30
2019-03-26T21:55:29.151Z,13.90
2019-03-26T21:58:38.477Z,14.30
2019-03-26T22:01:47.944Z,13.07
2019-03-26T22:04:57.243Z,13.97
2019-03-26T22:08:16.952Z,11.43
2019-03-26T22:11:26.435Z,9.80
2019-03-26T22:14:35.738Z,14.43
2019-03-26T22:17:45.011Z,17.57
2019-03-26T22:20:54.485Z,12.23
2019-03-26T22:24:03.942Z,16.10
2019-03-26T22:27:23.515Z,10.03
2019-03-26T22:30:33.105Z,10.77
2019-03-26T22:33:42.544Z,14.50
2019-03-26T22:37:02.125Z,15.03
2019-03-26T22:40:12.032Z,10.83
2019-03-26T22:43:21.317Z,14.03
2019-03-26T22:46:30.725Z,14.57
2019-03-26T22:49:40.793Z,12.10
2019-03-26T22:52:50.071Z,14.77
2019-03-26T22:55:59.418Z,10.57
2019-03-26T22:59:19.058Z,9.83
2019-03-26T23:02:28.520Z,13.50
2019-03-26T23:05:37.943Z,16.67
2019-03-26T23:08:57.716Z,11.73
2019-03-26T23:12:07.008Z,9.97
2019-03-26T23:15:23.172Z,13.47
2019-03-26T23:18:32.471Z,9.57
2019-03-26T23:21:41.868Z,16.70
2019-03-26T23:24:51.351Z,11.70
2019-03-26T23:28:00.712Z,10.93
2019-03-26T23:31:10.066Z,11.33
2019-03-26T23:34:29.841Z,11.63
2019-03-26T23:37:39.320Z,8.27
2019-03-26T23:40:48.715Z,7.13
2019-03-26T23:44:08.400Z,11.50
2019-03-26T23:47:17.815Z,14.83
2019-03-26T23:50:27.441Z,11.57
2019-03-26T23:53:36.848Z,12.30
2019-03-26T23:56:46.357Z,10.33
2019-03-26T23:59:55.773Z,10.83
